Погода Милятинона неделю

Могилёвская область, Белоруссия

22 - 28 мая
  • 22мая
    Сегодня
    +13°
    +26°
    Небольшая облачность, возможен дождь с грозой
    ВремяПогодаТемператураВлажностьДавлениеВетер, м/сВероятность осадков
    00:00Облачно с прояснениями+15°C81 %750 мм2.6 м/с2 %
    03:00Облачно с прояснениями+13°C89 %750 мм2.3 м/с2 %
    06:00Практически безоблачно+13°C88 %750 мм2.1 м/с6 %
    09:00Ясно и безоблачно+20°C71 %751 мм1.7 м/с2 %
    12:00Практически безоблачно+24°C51 %751 мм2.1 м/с3 %
    15:00Небольшая облачность, возможен дождь с грозой+25°C49 %750 мм2.4 м/с35 %
    18:00Облачно с прояснениями, ливень+21°C65 %751 мм3.2 м/с58 %
    21:00Небольшая облачность+18°C82 %751 мм2.9 м/с9 %
  • 23мая
    Четверг
    +11°
    +23°
    Ясно и безоблачно
    ВремяПогодаТемператураВлажностьДавлениеВетер, м/сВероятность осадков
    00:00Ясно и безоблачно+15°C93 %751 мм2.5 м/с1 %
    03:00Ясно и безоблачно+14°C96 %752 мм3.0 м/с1 %
    06:00Ясно и безоблачно+14°C94 %753 мм3.8 м/с2 %
    09:00Ясно и безоблачно+18°C75 %753 мм4.7 м/с2 %
    12:00Ясно и безоблачно+22°C58 %754 мм5.6 м/с16 %
    15:00Ясно и безоблачно+22°C49 %754 мм5.9 м/с20 %
    18:00Ясно и безоблачно+22°C51 %753 мм6.2 м/с30 %
    21:00Ясно и безоблачно+19°C60 %755 мм5.0 м/с2 %
  • 24мая
    Пятница
    +10°
    +22°
    Ясно и безоблачно
    ВремяПогодаТемператураВлажностьДавлениеВетер, м/сВероятность осадков
    00:00Ясно и безоблачно+15°C59 %756 мм5.5 м/с2 %
    03:00Ясно и безоблачно+13°C57 %756 мм5.1 м/с2 %
    06:00Практически безоблачно+11°C59 %757 мм4.9 м/с2 %
    09:00Ясно и безоблачно+16°C53 %758 мм5.0 м/с2 %
    12:00Ясно и безоблачно+20°C46 %758 мм5.0 м/с2 %
    15:00Ясно и безоблачно+22°C42 %758 мм4.7 м/с2 %
    18:00Ясно и безоблачно+21°C43 %757 мм4.6 м/с2 %
    21:00Ясно и безоблачно+17°C58 %757 мм3.3 м/с2 %
  • 25мая
    Суббота
    +8°
    +24°
    Ясно и безоблачно
    ВремяПогодаТемператураВлажностьДавлениеВетер, м/сВероятность осадков
    00:00Ясно и безоблачно+13°C63 %758 мм3.7 м/с2 %
    03:00Ясно и безоблачно+11°C63 %757 мм3.7 м/с2 %
    06:00Ясно и безоблачно+11°C61 %757 мм3.2 м/с2 %
    09:00Ясно и безоблачно+17°C50 %758 мм3.1 м/с2 %
    12:00Ясно и безоблачно+22°C42 %757 мм3.3 м/с2 %
    15:00Ясно и безоблачно+23°C40 %756 мм2.9 м/с2 %
    18:00Ясно и безоблачно+23°C39 %755 мм2.8 м/с2 %
    21:00Ясно и безоблачно+17°C64 %755 мм2.5 м/с2 %
  • 26мая
    Воскресенье
    +11°
    +24°
    Практически безоблачно
    ВремяПогодаТемператураВлажностьДавлениеВетер, м/сВероятность осадков
    00:00Ясно и безоблачно+12°C72 %755 мм2.5 м/с2 %
    03:00Ясно и безоблачно+10°C82 %755 мм2.8 м/с2 %
    06:00Ясно и безоблачно+11°C80 %755 мм1.3 м/с2 %
    09:00Облачно с прояснениями+19°C55 %755 мм0.7 м/с2 %
    12:00Практически безоблачно+22°C38 %755 мм1.4 м/с2 %
    15:00Практически безоблачно+23°C36 %755 мм1.3 м/с2 %
    18:00Ясно и безоблачно+24°C39 %754 мм1.1 м/с3 %
    21:00Ясно и безоблачно+18°C68 %754 мм2.1 м/с2 %
Мы используем cookies
Соглашаюсь